createdAt,value
2023-04-24T00:01:40.622Z,16.39
2023-04-24T00:04:08.390Z,16.39
2023-04-24T00:06:35.659Z,16.40
2023-04-24T00:09:03.226Z,16.44
2023-04-24T00:11:30.103Z,16.52
2023-04-24T00:13:57.629Z,16.59
2023-04-24T00:16:24.717Z,16.76
2023-04-24T00:18:53.815Z,16.87
2023-04-24T00:21:21.641Z,16.88
2023-04-24T00:23:48.946Z,16.86
2023-04-24T00:26:16.045Z,16.83
2023-04-24T00:28:43.199Z,16.81
2023-04-24T00:31:10.145Z,16.81
2023-04-24T00:33:37.177Z,16.79
2023-04-24T00:36:04.571Z,16.76
2023-04-24T00:38:31.600Z,16.73
2023-04-24T00:40:58.485Z,16.69
2023-04-24T00:43:25.907Z,16.67
2023-04-24T00:45:54.494Z,16.64
2023-04-24T00:48:21.715Z,16.63
2023-04-24T00:50:48.682Z,16.60
2023-04-24T00:53:16.159Z,16.59
2023-04-24T00:55:43.297Z,16.60
2023-04-24T00:58:10.242Z,16.61
2023-04-24T01:00:37.126Z,16.62
2023-04-24T01:03:05.617Z,16.64
2023-04-24T01:05:34.930Z,16.66
2023-04-24T01:08:02.046Z,16.68
2023-04-24T01:10:28.949Z,16.67
2023-04-24T01:12:56.044Z,16.66
2023-04-24T01:15:23.277Z,16.66
2023-04-24T01:17:51.190Z,16.65
2023-04-24T01:20:18.318Z,16.62
2023-04-24T01:22:45.548Z,16.58
2023-04-24T01:25:12.626Z,16.56
2023-04-24T01:27:39.547Z,16.57
2023-04-24T01:30:08.222Z,16.58
2023-04-24T01:32:35.422Z,16.60
2023-04-24T01:35:02.840Z,16.62
2023-04-24T01:37:29.809Z,16.64
2023-04-24T01:39:57.144Z,16.66
2023-04-24T01:42:26.010Z,16.66
2023-04-24T01:44:52.989Z,16.67
2023-04-24T01:47:19.933Z,16.67
2023-04-24T01:49:47.024Z,16.69
2023-04-24T01:52:13.924Z,16.68
2023-04-24T01:54:41.278Z,16.68
2023-04-24T01:57:08.228Z,16.68
2023-04-24T01:59:35.170Z,16.68
2023-04-24T02:02:02.482Z,16.69
2023-04-24T02:04:29.396Z,16.71
2023-04-24T02:06:56.569Z,16.71
2023-04-24T02:09:24.936Z,16.72
2023-04-24T02:11:51.871Z,16.72
2023-04-24T02:14:18.818Z,16.71
2023-04-24T02:16:46.082Z,16.71
2023-04-24T02:19:13.053Z,16.74
2023-04-24T02:21:40.059Z,16.81
2023-04-24T02:24:09.253Z,16.87
2023-04-24T02:26:36.335Z,16.90
2023-04-24T02:29:03.352Z,16.91
2023-04-24T02:33:04.645Z,15.71
2023-04-24T02:35:31.915Z,16.76
2023-04-24T02:37:59.020Z,16.91
2023-04-24T02:40:25.871Z,16.93
2023-04-24T02:42:52.895Z,16.94
2023-04-24T02:45:19.861Z,16.94
2023-04-24T02:47:46.849Z,16.95
2023-04-24T02:50:13.684Z,16.96
2023-04-24T02:52:40.482Z,16.97
2023-04-24T02:55:09.167Z,16.99
2023-04-24T02:57:36.538Z,17.02
2023-04-24T03:00:04.489Z,17.07
2023-04-24T03:02:31.630Z,17.14
2023-04-24T03:04:58.603Z,17.19
2023-04-24T03:07:25.847Z,17.19
2023-04-24T03:09:52.635Z,17.17
2023-04-24T03:12:19.635Z,17.18
2023-04-24T03:14:46.468Z,17.22
2023-04-24T03:17:13.637Z,17.25
2023-04-24T03:19:40.967Z,17.31
2023-04-24T03:22:10.403Z,17.47
2023-04-24T03:24:37.555Z,17.78
2023-04-24T03:27:05.040Z,18.13
2023-04-24T03:29:56.719Z,18.55
2023-04-24T03:32:28.244Z,18.95
2023-04-24T03:34:55.444Z,19.27
2023-04-24T03:37:22.382Z,19.38
2023-04-24T03:39:56.662Z,19.59
2023-04-24T03:42:24.675Z,19.75
2023-04-24T03:44:55.827Z,19.83
2023-04-24T03:47:25.444Z,19.78
2023-04-24T03:49:53.425Z,19.66
2023-04-24T03:52:20.570Z,19.54
2023-04-24T03:54:47.825Z,19.44
2023-04-24T03:57:14.746Z,19.33
2023-04-24T03:59:46.712Z,19.23
2023-04-24T04:02:17.643Z,19.16
2023-04-24T04:04:44.933Z,19.11
2023-04-24T04:07:12.515Z,19.09
2023-04-24T04:09:39.541Z,19.10
2023-04-24T04:12:06.521Z,19.13
2023-04-24T04:14:33.572Z,19.14
2023-04-24T04:17:00.669Z,19.15
2023-04-24T04:19:27.871Z,19.14
2023-04-24T04:21:57.348Z,19.18
2023-04-24T04:24:39.200Z,19.24
2023-04-24T04:27:06.899Z,19.25
2023-04-24T04:29:45.487Z,19.22
2023-04-24T04:32:13.952Z,19.23
2023-04-24T04:34:41.446Z,19.24
2023-04-24T04:37:09.362Z,19.24
2023-04-24T04:40:10.836Z,19.25
2023-04-24T04:42:41.568Z,19.37
2023-04-24T04:45:12.857Z,19.82
2023-04-24T04:47:52.483Z,20.47
2023-04-24T04:50:20.678Z,20.77
2023-04-24T04:52:47.926Z,20.87
2023-04-24T04:55:21.497Z,20.90
2023-04-24T04:58:10.271Z,20.88
2023-04-24T05:00:38.590Z,20.86
2023-04-24T05:03:21.078Z,20.82
2023-04-24T05:05:52.642Z,20.77
2023-04-24T05:08:27.260Z,20.71
2023-04-24T05:10:56.153Z,20.69
2023-04-24T05:13:35.506Z,20.67
2023-04-24T05:16:08.119Z,20.64
2023-04-24T05:18:35.538Z,20.63
2023-04-24T05:21:02.995Z,20.64
2023-04-24T05:23:30.362Z,20.64
2023-04-24T05:25:57.612Z,20.66
2023-04-24T05:28:24.570Z,20.68
2023-04-24T05:31:02.310Z,20.71
2023-04-24T05:33:29.804Z,20.75
2023-04-24T05:35:56.778Z,20.78
2023-04-24T05:38:23.905Z,20.82
2023-04-24T05:40:50.909Z,20.85
2023-04-24T05:43:17.800Z,20.89
2023-04-24T05:45:44.823Z,20.93
2023-04-24T05:48:11.710Z,21.00
2023-04-24T05:50:38.634Z,21.09
2023-04-24T05:53:08.185Z,21.19
2023-04-24T05:55:37.051Z,21.30
2023-04-24T05:58:04.184Z,21.41
2023-04-24T06:00:31.384Z,21.50
2023-04-24T06:03:01.718Z,21.60
2023-04-24T06:05:29.048Z,21.72
2023-04-24T06:07:56.181Z,21.90
2023-04-24T06:10:24.563Z,22.14
2023-04-24T06:12:52.110Z,22.41
2023-04-24T06:15:19.171Z,22.68
2023-04-24T06:18:06.085Z,23.01
2023-04-24T06:20:33.383Z,23.24
2023-04-24T06:23:02.220Z,23.47
2023-04-24T06:25:29.168Z,23.64
2023-04-24T06:27:56.804Z,23.85
2023-04-24T06:30:23.784Z,24.11
2023-04-24T06:32:51.076Z,24.46
2023-04-24T06:35:18.115Z,24.94
2023-04-24T06:37:45.023Z,25.57
2023-04-24T06:40:12.276Z,26.34
2023-04-24T06:42:39.259Z,27.17
2023-04-24T06:45:09.278Z,28.00
2023-04-24T06:47:36.191Z,28.77
2023-04-24T06:50:03.559Z,29.44
2023-04-24T06:52:33.923Z,30.06
2023-04-24T06:55:02.537Z,30.63
2023-04-24T06:57:30.326Z,31.09
2023-04-24T06:59:57.380Z,31.32
2023-04-24T07:02:24.647Z,31.68
2023-04-24T07:04:51.831Z,32.19
2023-04-24T07:07:18.755Z,32.60
2023-04-24T07:09:46.729Z,32.54
2023-04-24T07:12:14.608Z,32.38
2023-04-24T07:14:41.878Z,32.35
2023-04-24T07:17:08.795Z,32.02
2023-04-24T07:19:38.793Z,31.35
2023-04-24T07:22:05.747Z,30.90
2023-04-24T07:24:35.767Z,30.62
2023-04-24T07:27:02.840Z,30.22
2023-04-24T07:29:29.855Z,30.06
2023-04-24T07:31:57.966Z,30.16
2023-04-24T07:34:25.407Z,30.13
2023-04-24T07:36:52.260Z,29.79
2023-04-24T07:39:19.587Z,29.37
2023-04-24T07:41:46.556Z,28.92
2023-04-24T07:44:13.582Z,28.47
2023-04-24T07:46:41.232Z,28.15
2023-04-24T07:49:13.592Z,27.89
2023-04-24T07:51:42.606Z,27.62
2023-04-24T07:54:10.082Z,27.41
2023-04-24T07:56:40.061Z,27.20
2023-04-24T07:59:07.672Z,27.09
2023-04-24T08:01:34.554Z,27.01
2023-04-24T08:04:02.181Z,26.80
2023-04-24T08:06:31.806Z,26.63
2023-04-24T08:09:00.644Z,26.52
2023-04-24T08:11:27.916Z,26.45
2023-04-24T08:13:56.068Z,26.49
2023-04-24T08:16:25.267Z,26.58
2023-04-24T08:18:52.759Z,26.74
2023-04-24T08:21:20.130Z,26.95
2023-04-24T08:23:46.962Z,27.09
2023-04-24T08:26:14.522Z,27.09
2023-04-24T08:28:41.413Z,26.97
2023-04-24T08:31:08.449Z,26.80
2023-04-24T08:33:36.185Z,26.66
2023-04-24T08:36:04.257Z,26.84
2023-04-24T08:38:35.346Z,27.08
2023-04-24T08:41:02.493Z,27.13
2023-04-24T08:43:29.500Z,26.85
2023-04-24T08:45:57.639Z,26.42
2023-04-24T08:48:30.927Z,26.03
2023-04-24T08:50:59.835Z,25.78
2023-04-24T08:53:27.213Z,25.75
2023-04-24T08:55:55.199Z,25.86
2023-04-24T08:58:22.052Z,26.08
2023-04-24T09:00:49.375Z,26.37
2023-04-24T09:03:17.546Z,26.57
2023-04-24T09:05:48.707Z,26.67
2023-04-24T09:08:15.796Z,26.76
2023-04-24T09:10:42.822Z,26.90
2023-04-24T09:13:13.031Z,26.98
2023-04-24T09:15:41.083Z,27.06
2023-04-24T09:18:08.011Z,27.05
2023-04-24T09:20:37.334Z,26.92
2023-04-24T09:23:04.589Z,26.87
2023-04-24T09:25:35.415Z,26.89
2023-04-24T09:28:03.861Z,26.91
2023-04-24T09:30:31.073Z,26.95
2023-04-24T09:33:16.793Z,26.96
2023-04-24T09:35:50.149Z,26.97
2023-04-24T09:38:17.199Z,26.94
2023-04-24T09:40:44.179Z,26.83
2023-04-24T09:43:14.096Z,26.73
2023-04-24T09:45:41.227Z,26.61
2023-04-24T09:48:11.916Z,26.59
2023-04-24T09:50:39.099Z,26.59
2023-04-24T09:53:09.874Z,26.59
2023-04-24T09:55:41.130Z,26.62
2023-04-24T09:58:09.015Z,26.67
2023-04-24T10:00:36.108Z,26.71
2023-04-24T10:03:04.599Z,26.76
2023-04-24T10:05:33.883Z,26.83
2023-04-24T10:08:05.647Z,26.72
2023-04-24T10:10:33.517Z,26.53
2023-04-24T10:13:01.718Z,26.38
2023-04-24T10:15:29.156Z,26.20
2023-04-24T10:17:56.218Z,26.05
2023-04-24T10:20:24.779Z,25.81
2023-04-24T10:22:55.018Z,25.46
2023-04-24T10:25:23.477Z,25.21
2023-04-24T10:27:51.549Z,25.13
2023-04-24T10:30:19.657Z,25.11
2023-04-24T10:32:47.066Z,25.10
2023-04-24T10:35:16.135Z,25.03
2023-04-24T10:37:57.679Z,24.96
2023-04-24T10:40:35.298Z,24.93
2023-04-24T10:43:10.829Z,24.88
2023-04-24T10:45:38.366Z,24.80
2023-04-24T10:48:07.694Z,24.72
2023-04-24T10:50:46.241Z,24.73
2023-04-24T10:53:15.879Z,24.85
2023-04-24T10:55:51.491Z,25.03
2023-04-24T10:58:23.237Z,25.23
2023-04-24T11:00:58.506Z,25.46
2023-04-24T11:03:30.291Z,25.65
2023-04-24T11:06:09.655Z,25.83
2023-04-24T11:08:44.355Z,25.86
2023-04-24T11:11:16.487Z,25.74
2023-04-24T11:13:56.032Z,25.57
2023-04-24T11:16:40.507Z,25.46
2023-04-24T11:19:20.300Z,25.36
2023-04-24T11:21:47.174Z,25.30
2023-04-24T11:24:26.805Z,25.29
2023-04-24T11:27:00.187Z,25.34
2023-04-24T11:29:42.435Z,25.39
2023-04-24T11:32:34.857Z,25.48
2023-04-24T11:35:06.198Z,25.67
2023-04-24T11:37:43.987Z,25.91
2023-04-24T11:40:18.547Z,26.16
2023-04-24T11:42:46.189Z,26.40
2023-04-24T11:45:22.448Z,26.52
2023-04-24T11:47:50.327Z,26.56
2023-04-24T11:50:19.070Z,26.64
2023-04-24T11:52:47.977Z,26.72
2023-04-24T11:55:14.837Z,26.72
2023-04-24T11:57:48.996Z,26.71
2023-04-24T12:00:20.493Z,26.72
2023-04-24T12:02:48.338Z,26.76
2023-04-24T12:05:27.341Z,26.78
2023-04-24T12:07:54.969Z,26.86
2023-04-24T12:10:27.343Z,26.93
2023-04-24T12:12:54.895Z,27.01
2023-04-24T12:15:22.148Z,27.08
2023-04-24T12:17:49.282Z,27.14
2023-04-24T12:20:16.358Z,27.22
2023-04-24T12:22:47.820Z,27.28
2023-04-24T12:25:19.173Z,27.32
2023-04-24T12:27:46.646Z,27.37
2023-04-24T12:30:15.451Z,27.41
2023-04-24T12:32:52.920Z,27.46
2023-04-24T12:35:21.566Z,27.52
2023-04-24T12:37:48.484Z,27.55
2023-04-24T12:40:15.599Z,27.55
2023-04-24T12:42:44.355Z,27.53
2023-04-24T12:45:13.208Z,27.45
2023-04-24T12:47:41.130Z,27.36
2023-04-24T12:50:15.613Z,27.10
2023-04-24T12:52:43.127Z,26.86
2023-04-24T12:55:10.438Z,26.82
2023-04-24T12:57:38.594Z,26.83
2023-04-24T13:00:07.104Z,26.85
2023-04-24T13:02:35.183Z,26.92
2023-04-24T13:05:02.253Z,27.02
2023-04-24T13:07:29.183Z,27.08
2023-04-24T13:09:56.762Z,27.05
2023-04-24T13:12:25.102Z,26.87
2023-04-24T13:14:52.290Z,26.73
2023-04-24T13:17:19.153Z,26.78
2023-04-24T13:19:46.699Z,26.90
2023-04-24T13:22:13.891Z,27.01
2023-04-24T13:24:43.769Z,27.10
2023-04-24T13:27:11.148Z,27.19
2023-04-24T13:29:38.545Z,27.27
2023-04-24T13:32:05.784Z,27.33
2023-04-24T13:34:32.836Z,27.34
2023-04-24T13:36:59.880Z,27.33
2023-04-24T13:39:27.205Z,27.31
2023-04-24T13:41:54.986Z,27.28
2023-04-24T13:44:22.721Z,27.18
2023-04-24T13:46:50.483Z,27.03
2023-04-24T13:49:17.533Z,26.91
2023-04-24T13:51:44.586Z,26.83
2023-04-24T13:54:11.520Z,26.80
2023-04-24T13:56:38.493Z,26.79
2023-04-24T13:59:05.617Z,26.75
2023-04-24T14:01:32.474Z,26.69
2023-04-24T14:03:59.591Z,26.66
2023-04-24T14:06:27.084Z,26.63
2023-04-24T14:08:53.929Z,26.63
2023-04-24T14:11:21.188Z,26.63
2023-04-24T14:13:48.224Z,26.62
2023-04-24T14:16:28.546Z,26.61
2023-04-24T14:18:56.454Z,26.59
2023-04-24T14:21:26.482Z,26.61
2023-04-24T14:23:53.257Z,26.63
2023-04-24T14:26:20.789Z,26.63
2023-04-24T14:28:47.874Z,26.65
2023-04-24T14:31:14.924Z,26.66
2023-04-24T14:33:41.933Z,26.67
2023-04-24T14:36:08.981Z,26.65
2023-04-24T14:38:36.227Z,26.64
2023-04-24T14:41:11.292Z,26.63
2023-04-24T14:43:41.540Z,26.61
2023-04-24T14:46:08.436Z,26.59
2023-04-24T14:50:57.005Z,25.38
2023-04-24T14:53:23.852Z,26.31
2023-04-24T14:55:50.936Z,26.41
2023-04-24T14:58:17.727Z,26.41
2023-04-24T15:00:44.647Z,26.40
2023-04-24T15:03:11.990Z,26.38
2023-04-24T15:05:39.372Z,26.35
2023-04-24T15:08:06.864Z,26.28
2023-04-24T15:10:34.225Z,26.24
2023-04-24T15:13:01.427Z,26.20
2023-04-24T15:15:28.315Z,26.12
2023-04-24T15:17:55.305Z,26.01
2023-04-24T15:20:22.207Z,25.84
2023-04-24T15:22:49.009Z,25.76
2023-04-24T15:25:16.132Z,25.73
2023-04-24T15:27:44.283Z,25.71
2023-04-24T15:30:12.032Z,25.69
2023-04-24T15:32:39.579Z,25.59
2023-04-24T15:35:09.041Z,25.46
2023-04-24T15:37:39.258Z,25.38
2023-04-24T15:40:08.323Z,25.37
2023-04-24T15:42:36.313Z,25.36
2023-04-24T15:45:04.622Z,25.32
2023-04-24T15:47:31.677Z,25.28
2023-04-24T15:49:58.760Z,25.23
2023-04-24T15:52:25.993Z,25.12
2023-04-24T15:54:53.194Z,24.94
2023-04-24T15:57:20.001Z,24.79
2023-04-24T15:59:46.813Z,24.69
2023-04-24T16:02:19.682Z,24.63
2023-04-24T16:04:48.368Z,24.55
2023-04-24T16:07:15.801Z,24.50
2023-04-24T16:09:42.826Z,24.46
2023-04-24T16:12:10.666Z,24.41
2023-04-24T16:14:38.491Z,24.37
2023-04-24T16:17:05.550Z,24.32
2023-04-24T16:19:34.232Z,24.33
2023-04-24T16:22:01.421Z,24.35
2023-04-24T16:24:28.344Z,24.38
2023-04-24T16:26:56.187Z,24.40
2023-04-24T16:29:23.139Z,24.41
2023-04-24T16:31:50.874Z,24.41
2023-04-24T16:34:18.151Z,24.40
2023-04-24T16:36:45.505Z,24.39
2023-04-24T16:39:13.321Z,24.36
2023-04-24T16:41:40.645Z,24.34
2023-04-24T16:44:07.779Z,24.32
2023-04-24T16:46:35.436Z,24.26
2023-04-24T16:49:02.595Z,24.22
2023-04-24T16:51:29.647Z,24.17
2023-04-24T16:53:56.601Z,24.13
2023-04-24T16:56:24.391Z,24.09
2023-04-24T16:58:51.599Z,24.04
2023-04-24T17:01:18.626Z,23.99
2023-04-24T17:03:46.946Z,23.92
2023-04-24T17:06:14.103Z,23.86
2023-04-24T17:08:41.051Z,23.80
2023-04-24T17:11:08.092Z,23.73
2023-04-24T17:13:35.031Z,23.64
2023-04-24T17:16:02.114Z,23.56
2023-04-24T17:18:29.142Z,23.47
2023-04-24T17:20:56.279Z,23.38
2023-04-24T17:23:23.328Z,23.30
2023-04-24T17:25:50.151Z,23.25
2023-04-24T17:28:32.814Z,23.20
2023-04-24T17:30:59.870Z,23.14
2023-04-24T17:33:30.792Z,23.09
2023-04-24T17:36:04.262Z,23.03
2023-04-24T17:38:31.434Z,22.97
2023-04-24T17:40:58.625Z,22.92
2023-04-24T17:43:26.042Z,22.82
2023-04-24T17:45:56.111Z,22.74
2023-04-24T17:48:23.132Z,22.66
2023-04-24T17:50:50.162Z,22.59
2023-04-24T17:53:18.870Z,22.53
2023-04-24T17:55:46.705Z,22.45
2023-04-24T17:58:13.707Z,22.36
2023-04-24T18:00:41.030Z,22.27
2023-04-24T18:03:08.848Z,22.22
2023-04-24T18:05:36.971Z,22.18
2023-04-24T18:08:04.173Z,22.11
2023-04-24T18:10:32.177Z,22.05
2023-04-24T18:12:59.547Z,21.98
2023-04-24T18:15:27.330Z,21.91
2023-04-24T18:17:54.313Z,21.83
2023-04-24T18:20:21.269Z,21.72
2023-04-24T18:22:48.493Z,21.59
2023-04-24T18:25:15.916Z,21.52
2023-04-24T18:27:42.737Z,21.45
2023-04-24T18:30:13.728Z,21.40
2023-04-24T18:32:41.967Z,21.37
2023-04-24T18:35:10.075Z,21.36
2023-04-24T18:37:36.945Z,21.34
2023-04-24T18:40:03.938Z,21.32
2023-04-24T18:42:30.896Z,21.25
2023-04-24T18:45:01.914Z,21.18
2023-04-24T18:47:29.045Z,21.16
2023-04-24T18:49:56.235Z,21.14
2023-04-24T18:52:23.680Z,21.06
2023-04-24T18:54:50.750Z,20.96
2023-04-24T18:57:17.784Z,20.87
2023-04-24T18:59:44.839Z,20.76
2023-04-24T19:02:12.108Z,20.66
2023-04-24T19:04:39.248Z,20.57
2023-04-24T19:07:06.198Z,20.47
2023-04-24T19:09:33.786Z,20.38
2023-04-24T19:12:02.030Z,20.34
2023-04-24T19:14:28.977Z,20.33
2023-04-24T19:16:55.936Z,20.31
2023-04-24T19:19:23.989Z,20.32
2023-04-24T19:21:50.867Z,20.31
2023-04-24T19:24:19.311Z,20.31
2023-04-24T19:26:46.397Z,20.31
2023-04-24T19:29:13.809Z,20.33
2023-04-24T19:31:40.807Z,20.32
2023-04-24T19:34:07.992Z,20.32
2023-04-24T19:36:34.911Z,20.31
2023-04-24T19:39:01.744Z,20.32
2023-04-24T19:41:28.588Z,20.31
2023-04-24T19:43:55.510Z,20.33
2023-04-24T19:46:23.011Z,20.33
2023-04-24T19:48:50.526Z,20.33
2023-04-24T19:51:18.703Z,20.30
2023-04-24T19:53:46.018Z,20.28
2023-04-24T19:56:13.165Z,20.26
2023-04-24T19:58:40.256Z,20.27
2023-04-24T20:01:07.090Z,20.28
2023-04-24T20:03:34.714Z,20.29
2023-04-24T20:06:02.111Z,20.28
2023-04-24T20:08:29.184Z,20.24
2023-04-24T20:10:58.336Z,20.17
2023-04-24T20:13:28.200Z,20.12
2023-04-24T20:15:55.427Z,20.05
2023-04-24T20:18:22.910Z,19.94
2023-04-24T20:20:49.922Z,19.85
2023-04-24T20:23:17.533Z,19.78
2023-04-24T20:25:44.363Z,19.63
2023-04-24T20:28:11.406Z,19.43
2023-04-24T20:30:38.274Z,19.30
2023-04-24T20:33:05.387Z,19.24
2023-04-24T20:35:32.486Z,19.19
2023-04-24T20:37:59.792Z,19.18
2023-04-24T20:40:28.285Z,19.19
2023-04-24T20:42:56.771Z,19.22
2023-04-24T20:45:24.545Z,19.25
2023-04-24T20:47:51.398Z,19.28
2023-04-24T20:50:19.033Z,19.26
2023-04-24T20:52:46.094Z,19.25
2023-04-24T20:55:13.184Z,19.24
2023-04-24T20:57:40.188Z,19.24
2023-04-24T21:00:08.943Z,19.25
2023-04-24T21:02:35.994Z,19.25
2023-04-24T21:05:04.524Z,19.23
2023-04-24T21:07:31.500Z,19.21
2023-04-24T21:09:58.513Z,19.20
2023-04-24T21:12:25.461Z,19.06
2023-04-24T21:14:52.341Z,18.94
2023-04-24T21:17:19.306Z,18.95
2023-04-24T21:19:46.287Z,19.14
2023-04-24T21:22:13.089Z,19.21
2023-04-24T21:24:40.008Z,19.24
2023-04-24T21:27:07.759Z,19.25
2023-04-24T21:29:36.017Z,19.23
2023-04-24T21:32:03.522Z,19.19
2023-04-24T21:34:30.684Z,19.18
2023-04-24T21:36:57.575Z,19.18
2023-04-24T21:39:25.038Z,19.19
2023-04-24T21:41:52.145Z,19.19
2023-04-24T21:44:19.045Z,19.20
2023-04-24T21:46:46.093Z,19.19
2023-04-24T21:49:13.085Z,19.18
2023-04-24T21:51:39.977Z,19.16
2023-04-24T21:54:06.859Z,19.11
2023-04-24T21:56:33.786Z,19.06
2023-04-24T21:59:00.698Z,19.03
2023-04-24T22:01:27.696Z,18.99
2023-04-24T22:03:54.879Z,18.97
2023-04-24T22:06:22.326Z,18.95
2023-04-24T22:08:49.226Z,18.95
2023-04-24T22:11:26.767Z,18.92
2023-04-24T22:13:55.216Z,18.96
2023-04-24T22:16:24.253Z,18.97
2023-04-24T22:18:55.566Z,18.96
2023-04-24T22:21:23.127Z,18.95
2023-04-24T22:23:50.518Z,18.95
2023-04-24T22:26:17.782Z,18.94
2023-04-24T22:28:46.520Z,18.93
2023-04-24T22:31:14.723Z,18.92
2023-04-24T22:33:42.390Z,18.91
2023-04-24T22:36:09.701Z,18.88
2023-04-24T22:38:36.743Z,18.87
2023-04-24T22:41:03.804Z,18.86
2023-04-24T22:43:31.992Z,18.84
2023-04-24T22:45:58.835Z,18.82
2023-04-24T22:48:26.218Z,18.80
2023-04-24T22:50:53.259Z,18.77
2023-04-24T22:53:20.261Z,18.72
2023-04-24T22:55:47.313Z,18.68
2023-04-24T22:58:14.155Z,18.66
2023-04-24T23:00:41.152Z,18.65
2023-04-24T23:03:08.459Z,18.64
2023-04-24T23:05:35.720Z,18.64
2023-04-24T23:08:02.623Z,18.62
2023-04-24T23:10:29.551Z,18.60
2023-04-24T23:12:56.450Z,18.58
2023-04-24T23:15:23.412Z,18.56
2023-04-24T23:17:50.485Z,18.54
2023-04-24T23:20:17.542Z,18.54
2023-04-24T23:22:44.461Z,18.52
2023-04-24T23:25:11.369Z,18.48
2023-04-24T23:27:38.291Z,18.44
2023-04-24T23:30:07.046Z,18.42
2023-04-24T23:32:34.109Z,18.40
2023-04-24T23:35:01.125Z,18.38
2023-04-24T23:37:28.180Z,18.34
2023-04-24T23:39:55.144Z,18.33
2023-04-24T23:42:22.082Z,18.31
2023-04-24T23:44:49.032Z,18.28
2023-04-24T23:47:15.850Z,18.26
2023-04-24T23:49:42.777Z,18.23
2023-04-24T23:52:09.752Z,18.21
2023-04-24T23:54:37.316Z,18.19
2023-04-24T23:57:04.598Z,18.17
2023-04-24T23:59:31.613Z,18.13
